Latest Weather Observations for Central Arnhem Plateau

IDD60801

Issued at 5:41 am CST Saturday 28 November 2020 (issued every 10 minutes, with the page automatically refreshed every 10 minutes)

About weather observations | Map of weather stations | Latest weather observations for NT | Other Formats
Station Details ID: 014909 Name: CENTRAL ARNHEM PLATEAU Lat: -13.33 Lon: 133.09 Height: 416.0 m
Data from the previous 72 hours. | See also: Recent months at Central Arnhem Plateau
Date/Time
CST
Temp
°C
App
Temp
°C
Dew
Point
°C
Rel
Hum
%
Delta-T
°C
Wind Press
QNH
hPa
Press
MSL
hPa
Rain since
9am
mm
Dir  Spd
km/h
Gust
km/h
Spd
kts
Gust
kts
28/05:30am 25.8 30.3 23.7 88 1.5 NW 6 7 3 4 1010.2 1007.0 1.2
28/05:00am 25.8 30.3 23.7 88 1.5 WNW 6 9 3 5 1010.2 1007.0 1.2
28/04:30am 25.8 31.2 23.3 86 1.7 CALM 0 0 0 0 1009.9 1006.7 1.2
28/04:00am 26.0 30.2 23.5 86 1.7 NW 7 9 4 5 1009.9 1006.7 1.0
28/03:30am 25.9 30.1 23.4 86 1.7 NW 7 9 4 5 1009.7 1006.5 1.0
28/03:00am 25.8 29.5 23.3 86 1.7 NNW 9 13 5 7 1009.7 1006.5 1.0
28/02:30am 25.9 29.6 23.2 85 1.9 NNW 9 13 5 7 1009.9 1006.7 1.0
28/02:00am 26.1 29.7 23.0 83 2.1 NW 9 13 5 7 1010.2 1007.0 1.0
28/01:30am 26.0 29.8 22.7 82 2.3 NW 7 11 4 6 1010.3 1007.1 1.0
28/01:00am 26.3 29.5 22.4 79 2.7 NW 9 11 5 6 1010.3 1007.1 1.0
28/12:30am 26.5 29.6 22.1 77 3.0 NW 9 11 5 6 1010.4 1007.2 1.0
28/12:00am 26.5 29.0 21.7 75 3.3 WNW 11 15 6 8 1010.4 1007.2 1.0
 
Date/Time
CST
Temp
°C
App
Temp
°C
Dew
Point
°C
Rel
Hum
%
Delta-T
°C
Wind Press
QNH
hPa
Press
MSL
hPa
Rain since
9am
mm
Dir  Spd
km/h
Gust
km/h
Spd
kts
Gust
kts
27/11:30pm 26.8 28.9 20.9 70 4.0 WNW 11 15 6 8 1010.5 1007.3 1.0
27/11:00pm 27.0 28.6 20.8 69 4.2 WNW 13 17 7 9 1010.3 1007.1 1.0
27/10:30pm 26.2 29.1 21.0 73 3.5 WNW 7 9 4 5 1010.0 1006.8 1.0
27/10:00pm 26.0 29.0 21.2 75 3.2 W 7 11 4 6 1009.6 1006.4 1.0
27/09:30pm 26.1 29.6 20.4 71 3.8 N 2 7 1 4 1009.3 1006.1 1.0
27/09:00pm 25.4 29.3 20.4 74 3.3 CALM 0 0 0 0 1008.9 1005.6 1.0
27/08:30pm 25.3 28.9 19.7 71 3.7 CALM 0 6 0 3 1008.4 1005.2 1.0
27/08:00pm 24.6 26.3 20.1 76 3.0 NW 11 13 6 7 1008.3 1005.1 1.0
27/07:30pm 25.0 27.5 21.1 79 2.6 WNW 9 15 5 8 1008.4 1005.2 1.0
27/07:00pm 25.3 25.7 21.0 77 2.9 SW 20 28 11 15 1008.4 1005.2 1.0
27/06:30pm 27.9 25.8 19.7 61 5.4 E 30 44 16 24 1008.3 1005.1 0.2
27/06:19pm 30.3 30.0 17.4 46 8.3 ENE 15 50 8 27 1008.1 1004.9 0.2
27/06:00pm 32.6 34.4 18.8 44 9.2 N 7 11 4 6 1007.7 1004.5 0.2
27/05:30pm 33.4 34.3 18.3 40 10.0 NNW 11 17 6 9 1007.4 1004.2 0.2
27/05:00pm 33.5 34.8 17.2 37 10.6 N 6 13 3 7 1006.9 1003.6 0.2
27/04:30pm 33.3 34.0 17.9 40 10.1 WNW 11 17 6 9 1007.5 1004.3 0.2
27/04:00pm 33.6 34.2 17.7 38 10.4 WNW 11 17 6 9 1007.6 1004.4 0.2
27/03:30pm 33.3 33.8 18.3 41 9.9 NW 13 22 7 12 1007.9 1004.7 0.2
27/03:00pm 32.8 34.2 18.6 43 9.4 NNW 9 17 5 9 1008.3 1005.1 0.2
27/02:30pm 33.0 33.8 19.1 43 9.3 NNW 13 20 7 11 1008.7 1005.5 0.2
27/02:00pm 32.6 33.6 20.2 48 8.4 NNW 15 20 8 11 1009.2 1006.0 0.2
27/01:30pm 32.7 33.9 20.6 49 8.2 NW 15 28 8 15 1009.5 1006.3 0.2
27/01:00pm 31.7 32.1 19.0 47 8.4 NNW 15 20 8 11 1010.0 1006.8 0.2
27/12:30pm 32.0 32.9 19.3 47 8.5 NNW 13 20 7 11 1010.6 1007.4 0.2
27/12:00pm 31.3 32.7 20.3 52 7.4 N 13 19 7 10 1011.4 1008.2 0.2
27/11:30am 30.4 31.3 20.9 57 6.4 NNE 17 24 9 13 1011.9 1008.7 0.2
27/11:00am 29.0 29.4 20.7 61 5.6 NNE 19 28 10 15 1012.3 1009.1 0.0
27/10:30am 28.4 29.7 22.4 70 4.1 NNE 19 26 10 14 1012.3 1009.1 0.0
27/10:00am 28.0 30.0 22.9 74 3.5 NNE 17 26 9 14 1012.4 1009.2 0.0
27/09:30am 27.3 29.6 22.0 73 3.6 NNE 13 20 7 11 1012.7 1009.5 0.0
27/09:00am 26.5 28.1 21.5 74 3.4 NE 15 20 8 11 1012.8 1009.6 1.0
27/08:30am 25.4 26.7 20.9 76 3.0 NE 15 20 8 11 1012.0 1008.8 1.0
27/08:00am 24.5 27.2 21.4 83 2.1 NE 9 13 5 7 1011.5 1008.3 1.0
27/07:30am 24.0 28.2 20.9 83 2.1 CALM 0 0 0 0 1011.1 1007.9 1.0
27/07:00am 23.0 27.1 20.7 87 1.5 CALM 0 6 0 3 1010.8 1007.6 1.0
27/06:30am 23.2 26.7 20.3 84 1.9 S 2 7 1 4 1010.4 1007.2 1.0
27/06:00am 23.2 27.3 20.7 86 1.7 CALM 0 0 0 0 1010.0 1006.8 1.0
27/05:30am 23.2 27.0 20.2 83 2.0 CALM 0 0 0 0 1009.7 1006.5 1.0
27/05:00am 23.0 26.8 20.1 84 1.9 CALM 0 0 0 0 1009.4 1006.2 1.0
27/04:30am 22.6 25.6 20.1 86 1.6 NNW 4 7 2 4 1009.0 1005.7 1.0
27/04:00am 22.5 25.2 20.2 87 1.5 NNW 6 7 3 4 1009.0 1005.7 1.0
27/03:30am 22.5 25.0 20.2 87 1.5 N 7 9 4 5 1009.2 1006.0 1.0
27/03:00am 22.9 24.9 20.8 88 1.4 NW 11 15 6 8 1008.9 1005.6 1.0
27/02:30am 23.1 24.6 20.6 86 1.7 NW 13 17 7 9 1008.7 1005.5 1.0
27/02:00am 23.5 25.4 20.6 84 1.9 WNW 11 17 6 9 1008.5 1005.3 1.0
27/01:30am 23.6 25.1 20.5 83 2.1 WNW 13 20 7 11 1008.5 1005.3 1.0
27/01:00am 23.7 25.4 21.0 85 1.8 WNW 13 20 7 11 1008.7 1005.5 1.0
27/12:30am 23.6 25.0 21.1 86 1.7 WNW 15 20 8 11 1009.6 1006.4 1.0
27/12:00am 23.7 25.6 20.6 83 2.1 WNW 11 17 6 9 1009.5 1006.3 1.0
 
Date/Time
CST
Temp
°C
App
Temp
°C
Dew
Point
°C
Rel
Hum
%
Delta-T
°C
Wind Press
QNH
hPa
Press
MSL
hPa
Rain since
9am
mm
Dir  Spd
km/h
Gust
km/h
Spd
kts
Gust
kts
26/11:30pm 23.3 25.2 20.6 85 1.8 WNW 11 13 6 7 1009.1 1005.8 1.0
26/11:00pm 23.4 25.7 20.7 85 1.8 NE 9 13 5 7 1009.9 1006.7 1.0
26/10:30pm 23.1 25.1 20.8 87 1.5 NE 11 19 6 10 1009.4 1006.2 1.0
26/10:00pm 23.2 23.2 20.9 87 1.5 NNE 22 33 12 18 1009.7 1006.5 1.0
26/09:30pm 25.8 23.8 20.8 74 3.3 NE 32 46 17 25 1010.2 1007.0 0.0
26/09:00pm 29.4 29.6 21.4 62 5.4 NNW 22 33 12 18 1008.7 1005.5 0.0
26/08:30pm 29.8 32.1 19.8 55 6.7 W 7 11 4 6 1007.6 1004.4 0.0
26/08:00pm 29.9 31.7 19.6 54 6.8 W 9 13 5 7 1006.8 1003.5 0.0
26/07:30pm 29.8 31.3 19.8 55 6.7 SSW 11 13 6 7 1006.9 1003.6 0.0
26/07:00pm 29.9 31.3 19.6 54 6.8 NW 11 15 6 8 1006.3 1003.0 0.0
26/06:30pm 30.1 31.3 19.8 54 6.9 NW 13 17 7 9 1005.9 1002.7 0.0
26/06:00pm 31.2 31.9 18.9 48 8.1 NW 13 26 7 14 1005.4 1002.2 0.0
26/05:30pm 31.3 33.2 17.6 44 8.9 N 4 11 2 6 1005.2 1002.0 0.0
26/05:00pm 31.6 31.1 16.0 39 9.9 S 13 19 7 10 1005.1 1001.9 0.0
26/04:30pm 29.9 27.4 17.0 45 8.3 SSE 26 37 14 20 1005.5 1002.3 0.0
26/04:00pm 30.0 29.0 18.8 51 7.4 S 22 33 12 18 1005.2 1002.0 0.0
26/03:30pm 28.9 28.3 20.4 60 5.7 S 24 35 13 19 1005.7 1002.5 0.0
26/03:15pm 30.8 26.8 14.0 36 10.3 SSE 28 50 15 27 1005.8 1002.6 0.0
26/03:00pm 35.5 36.1 17.7 35 11.7 S 11 24 6 13 1005.6 1002.4 0.0
26/02:30pm 35.0 36.0 17.7 36 11.4 SSW 9 15 5 8 1006.5 1003.2 0.0
26/02:00pm 34.7 35.8 17.0 35 11.5 SSE 7 13 4 7 1007.2 1004.0 0.0
26/01:30pm 34.2 34.8 17.8 37 10.8 ENE 11 19 6 10 1007.6 1004.4 0.0
26/01:00pm 33.5 35.1 19.2 43 9.5 SW 9 20 5 11 1008.3 1005.1 0.0
26/12:30pm 33.3 35.3 20.8 48 8.5 WSW 11 19 6 10 1008.6 1005.4 0.0
26/12:00pm 32.2 34.2 20.8 51 7.8 WSW 11 20 6 11 1009.3 1006.1 0.0
26/11:30am 31.5 34.4 21.7 56 6.7 WSW 9 15 5 8 1009.9 1006.7 0.0
26/11:00am 30.5 32.5 21.6 59 6.1 W 13 20 7 11 1010.2 1007.0 0.0
26/10:30am 30.0 32.7 22.2 63 5.4 WSW 11 15 6 8 1010.7 1007.5 0.0
26/10:00am 29.2 32.5 21.9 64 5.0 W 7 13 4 7 1010.9 1007.7 0.0
26/09:30am 28.5 30.5 22.3 69 4.3 WSW 15 20 8 11 1010.9 1007.7 0.0
26/09:00am 28.2 29.7 22.0 69 4.2 W 17 24 9 13 1010.6 1007.4 4.4
26/08:30am 27.4 28.4 21.7 71 3.9 W 19 24 10 13 1010.6 1007.4 4.4
26/08:00am 26.8 28.2 21.1 71 3.8 W 15 20 8 11 1010.3 1007.1 4.4
26/07:30am 26.3 28.3 20.8 71 3.7 W 11 15 6 8 1010.1 1006.9 4.4
26/07:00am 25.3 27.8 21.0 77 2.9 WNW 9 11 5 6 1009.8 1006.6 4.4
26/06:30am 24.7 27.6 21.0 80 2.5 WNW 7 9 4 5 1009.4 1006.2 4.4
26/06:00am 24.3 26.8 21.0 82 2.2 WNW 9 13 5 7 1008.9 1005.6 4.4
26/05:30am 24.5 26.5 20.8 80 2.5 WNW 11 15 6 8 1008.5 1005.3 4.4
26/05:00am 24.5 27.7 21.2 82 2.2 WNW 6 9 3 5 1008.2 1005.0 4.4
26/04:30am 24.3 27.9 21.2 83 2.1 NW 4 7 2 4 1007.9 1004.7 4.4
26/04:00am 24.5 27.4 21.0 81 2.3 WNW 7 9 4 5 1007.8 1004.6 4.4
26/03:30am 24.2 27.1 21.1 83 2.1 NW 7 9 4 5 1007.7 1004.5 4.4
26/03:00am 24.2 27.1 21.1 83 2.1 NW 7 9 4 5 1007.7 1004.5 4.4
26/02:30am 24.4 26.6 21.1 82 2.2 WNW 11 13 6 7 1008.0 1004.8 4.4
26/02:00am 24.9 27.4 21.0 79 2.6 W 9 13 5 7 1008.3 1005.1 4.4
26/01:30am 25.2 27.6 20.9 77 2.9 WNW 9 13 5 7 1008.6 1005.4 4.4
26/01:00am 25.3 27.2 20.5 75 3.2 WNW 11 15 6 8 1009.0 1005.7 4.4
26/12:30am 25.6 28.4 20.8 75 3.2 WNW 7 9 4 5 1009.5 1006.3 4.4
26/12:00am 25.9 28.3 20.9 74 3.3 WNW 9 13 5 7 1009.8 1006.6 4.4
 
Date/Time
CST
Temp
°C
App
Temp
°C
Dew
Point
°C
Rel
Hum
%
Delta-T
°C
Wind Press
QNH
hPa
Press
MSL
hPa
Rain since
9am
mm
Dir  Spd
km/h
Gust
km/h
Spd
kts
Gust
kts
25/11:30pm 25.9 28.8 21.1 75 3.2 NW 7 11 4 6 1010.3 1007.1 4.4
25/11:00pm 25.9 28.9 20.9 74 3.3 NNE 6 7 3 4 1010.6 1007.4 4.4
25/10:30pm 25.9 28.7 20.9 74 3.3 N 7 11 4 6 1010.1 1006.9 4.4
25/10:00pm 25.8 27.8 20.8 74 3.3 N 11 15 6 8 1009.2 1006.0 4.4
25/09:30pm 26.0 28.2 21.2 75 3.2 NW 11 17 6 9 1008.9 1005.6 4.4
25/09:00pm 26.0 27.9 21.4 76 3.1 NW 13 17 7 9 1009.0 1005.7 4.4
25/08:30pm 25.7 27.3 22.2 81 2.4 WNW 17 22 9 12 1008.7 1005.5 4.4
25/08:00pm 25.8 28.1 22.7 83 2.1 W 15 24 8 13 1008.4 1005.2 4.4
25/07:30pm 25.6 28.5 21.7 79 2.6 N 9 17 5 9 1007.8 1004.6 4.2
25/07:00pm 27.1 27.2 20.4 66 4.5 N 20 35 11 19 1006.6 1003.3 2.8
25/06:30pm 28.5 31.0 21.8 67 4.6 N 11 17 6 9 1005.9 1002.7 2.8
25/06:00pm 30.0 34.2 23.2 67 4.7 WNW 6 7 3 4 1005.6 1002.4 2.8
25/05:30pm 30.2 33.5 22.6 63 5.3 SW 9 11 5 6 1005.3 1002.1 2.8
25/05:00pm 27.4 31.6 23.4 79 2.8 NW 7 13 4 7 1005.5 1002.3 2.8
25/04:30pm 27.5 27.1 18.8 59 5.7 NNE 19 39 10 21 1006.4 1003.1 1.8
25/04:00pm 29.4 27.8 15.1 41 8.9 SE 17 50 9 27 1006.4 1003.1 0.0
25/03:30pm 34.2 34.9 17.0 36 11.2 S 9 17 5 9 1005.8 1002.6 0.0
25/03:00pm 34.6 35.4 17.3 35 11.3 SSW 9 17 5 9 1006.0 1002.8 0.0
25/02:30pm 34.7 35.9 18.3 38 10.9 SW 9 13 5 7 1006.4 1003.1 0.0
25/02:00pm 35.0 36.0 17.7 36 11.4 SW 9 17 5 9 1007.0 1003.8 0.0
25/01:30pm 33.7 34.5 17.4 37 10.6 WNW 9 15 5 8 1007.4 1004.2 0.0
25/01:00pm 32.9 33.8 17.5 39 10.0 WSW 9 17 5 9 1007.9 1004.7 0.0
25/12:30pm 32.4 34.2 19.6 46 8.6 WSW 9 19 5 10 1008.2 1005.0 0.0
25/12:00pm 32.7 34.0 20.2 47 8.4 WSW 13 19 7 10 1008.6 1005.4 0.0
25/11:30am 32.0 33.6 19.9 48 8.1 SW 11 17 6 9 1009.0 1005.7 0.0
25/11:00am 31.3 32.4 19.6 49 7.8 W 13 19 7 10 1009.3 1006.1 0.0
25/10:30am 30.3 31.4 19.6 52 7.1 W 13 20 7 11 1009.6 1006.4 0.0
25/10:00am 29.7 30.3 19.4 54 6.8 SW 15 19 8 10 1010.0 1006.8 0.0
25/09:30am 29.2 30.1 19.2 54 6.6 WSW 13 19 7 10 1010.1 1006.9 0.0
25/09:00am 28.4 29.3 19.3 57 6.0 WSW 13 20 7 11 1010.1 1006.9 2.8
25/08:30am 27.9 29.0 19.7 61 5.4 W 13 19 7 10 1009.9 1006.7 2.8
25/08:00am 27.0 27.4 19.1 62 5.2 W 15 22 8 12 1009.9 1006.7 2.8
25/07:30am 26.0 27.7 20.1 70 3.9 WNW 11 15 6 8 1009.5 1006.3 2.8
25/07:00am 25.6 27.2 19.9 70 3.8 WNW 11 19 6 10 1009.4 1006.2 2.8
25/06:30am 25.0 27.2 20.3 75 3.1 WNW 9 13 5 7 1008.9 1005.6 2.8
25/06:00am 24.8 27.0 20.5 77 2.9 WNW 9 13 5 7 1008.5 1005.3 2.8

Other formats

Comma delimited format used in spreadsheet applications
http://www.bom.gov.au/fwo/IDD60801/IDD60801.94141.axf

JavaScript Object Notation format (JSON) in row-major order
http://www.bom.gov.au/fwo/IDD60801/IDD60801.94141.json

Data quality

Most of these data are generated automatically and are frequently updated. Quality checks on data are not normally performed. It is possible for incorrect values to appear. Refer to information at About Latest Weather Observations and please check the disclaimer before using these data.